Terminal Aerodrome Forecast
Issued by NWS Mt. Holly, NJ

Home | Current Version | Previous Version | Text Only | Print | Product List | Glossary On
Versions: 1 2 3 4 5 6 7 8 9 10 11 12 13 14 15 16 17 18 19 20 21 22 23 24 25 26 27 28 29 30 31 32 33 34 35 36 37 38
000
FTAK31 PAFC 191325 AAA
TAFABE
TAF AMD
PABE 191325Z 1913/2012 14007KT 3SM BR VCFG BKN007
      TEMPO 1913/1916 6SM BR
     FM191600 17005KT 3SM BR OVC009
     FM192000 18009KT P6SM VCSH BKN050=

USA.gov is the U.S. government's official web portal to all federal, state and local government web resources and services.